createdAt,value
2022-12-08T00:02:32.468Z,99909.23
2022-12-08T00:06:44.705Z,99913.14
2022-12-08T00:10:50.820Z,99912.67
2022-12-08T00:14:44.447Z,99911.67
2022-12-08T00:18:35.260Z,99912.64
2022-12-08T00:22:25.662Z,99915.08
2022-12-08T00:26:16.486Z,99920.36
2022-12-08T00:30:07.904Z,99920.00
2022-12-08T00:33:59.122Z,99924.30
2022-12-08T00:37:49.420Z,99924.94
2022-12-08T00:41:58.565Z,99933.48
2022-12-08T00:45:48.691Z,99933.73
2022-12-08T00:49:38.861Z,99937.62
2022-12-08T00:53:31.101Z,99934.05
2022-12-08T00:57:21.523Z,99944.46
2022-12-08T01:01:13.271Z,99952.88
2022-12-08T01:05:04.045Z,99958.02
2022-12-08T01:08:54.345Z,99959.59
2022-12-08T01:12:44.543Z,99960.51
2022-12-08T01:16:36.493Z,99957.18
2022-12-08T01:20:27.237Z,99962.48
2022-12-08T01:24:20.766Z,99964.05
2022-12-08T01:28:11.793Z,99969.24
2022-12-08T01:32:02.490Z,99979.70
2022-12-08T01:35:53.814Z,99972.54
2022-12-08T01:39:44.135Z,99966.45
2022-12-08T01:43:55.199Z,99966.13
2022-12-08T01:47:50.221Z,99967.85
2022-12-08T01:51:57.407Z,99968.96
2022-12-08T01:55:53.449Z,99971.55
2022-12-08T01:59:50.801Z,99971.40
2022-12-08T02:04:02.409Z,99970.11
2022-12-08T02:07:53.533Z,99963.24
2022-12-08T02:11:43.827Z,99963.45
2022-12-08T02:15:48.588Z,99968.73
2022-12-08T02:20:16.236Z,99973.73
2022-12-08T02:24:15.751Z,99976.40
2022-12-08T02:28:29.738Z,99978.64
2022-12-08T02:32:58.302Z,99977.81
2022-12-08T02:37:16.774Z,99985.86
2022-12-08T02:41:32.457Z,99990.64
2022-12-08T02:45:38.835Z,99991.52
2022-12-08T02:49:34.253Z,99993.30
2022-12-08T02:53:24.963Z,99989.09
2022-12-08T02:57:52.230Z,99997.30
2022-12-08T03:02:01.603Z,99991.67
2022-12-08T03:06:05.822Z,99987.49
2022-12-08T03:10:03.267Z,99978.20
2022-12-08T03:13:59.508Z,99973.67
2022-12-08T03:17:56.195Z,99968.48
2022-12-08T03:21:51.984Z,99969.16
2022-12-08T03:25:57.029Z,99965.25
2022-12-08T03:29:49.376Z,99962.33
2022-12-08T03:33:44.597Z,99959.35
2022-12-08T03:37:36.629Z,99957.94
2022-12-08T03:41:27.238Z,99957.23
2022-12-08T03:45:17.743Z,99957.58
2022-12-08T03:49:08.350Z,99951.95
2022-12-08T03:52:58.750Z,99956.80
2022-12-08T03:56:49.255Z,99952.05
2022-12-08T04:00:39.559Z,99946.35
2022-12-08T04:04:32.108Z,99954.08
2022-12-08T04:08:22.327Z,99953.46
2022-12-08T04:12:12.503Z,99956.75
2022-12-08T04:16:05.303Z,99951.80
2022-12-08T04:19:55.659Z,99948.77
2022-12-08T04:23:47.189Z,99949.76
2022-12-08T04:27:37.283Z,99951.69
2022-12-08T04:31:27.809Z,99954.96
2022-12-08T04:35:18.158Z,99949.02
2022-12-08T04:39:08.696Z,99954.56
2022-12-08T04:42:59.505Z,99951.59
2022-12-08T04:46:49.663Z,99944.52
2022-12-08T04:50:42.050Z,99941.92
2022-12-08T04:54:32.257Z,99940.41
2022-12-08T04:58:22.957Z,99938.69
2022-12-08T05:02:13.696Z,99935.13
2022-12-08T05:06:05.601Z,99937.52
2022-12-08T05:09:55.902Z,99930.37
2022-12-08T05:13:46.409Z,99933.05
2022-12-08T05:17:36.910Z,99935.08
2022-12-08T05:21:27.621Z,99936.13
2022-12-08T05:25:17.714Z,99934.69
2022-12-08T05:29:08.116Z,99938.37
2022-12-08T05:32:58.619Z,99933.91
2022-12-08T05:36:49.021Z,99928.94
2022-12-08T05:40:40.141Z,99925.30
2022-12-08T05:44:30.543Z,99922.95
2022-12-08T05:48:21.354Z,99930.20
2022-12-08T05:52:11.757Z,99926.50
2022-12-08T05:56:02.056Z,99921.84
2022-12-08T05:59:52.559Z,99925.67
2022-12-08T06:03:44.293Z,99929.54
2022-12-08T06:07:35.413Z,99927.54
2022-12-08T06:11:29.192Z,99923.90
2022-12-08T06:15:19.500Z,99930.95
2022-12-08T06:19:10.099Z,99928.63
2022-12-08T06:23:00.706Z,99934.13
2022-12-08T06:26:50.697Z,99933.15
2022-12-08T06:30:42.943Z,99928.18
2022-12-08T06:34:36.321Z,99921.08
2022-12-08T06:38:28.251Z,99919.48
2022-12-08T06:42:37.292Z,99916.02
2022-12-08T06:46:29.157Z,99915.73
2022-12-08T06:50:23.521Z,99912.98
2022-12-08T06:54:13.720Z,99922.31
2022-12-08T06:58:04.224Z,99920.77
2022-12-08T07:02:03.451Z,99925.65
2022-12-08T07:06:03.258Z,99933.08
2022-12-08T07:09:56.217Z,99926.73
2022-12-08T07:13:47.027Z,99926.83
2022-12-08T07:17:37.224Z,99928.61
2022-12-08T07:21:27.626Z,99927.45
2022-12-08T07:25:19.290Z,99922.65
2022-12-08T07:29:10.787Z,99920.52
2022-12-08T07:33:18.117Z,99919.08
2022-12-08T07:37:10.739Z,99914.88
2022-12-08T07:41:04.957Z,99909.44
2022-12-08T07:44:55.843Z,99908.08
2022-12-08T07:48:46.556Z,99909.42
2022-12-08T07:52:36.956Z,99907.38
2022-12-08T07:56:27.049Z,99904.44
2022-12-08T08:00:19.573Z,99896.75
2022-12-08T08:04:39.682Z,99890.60
2022-12-08T08:08:30.473Z,99892.25
2022-12-08T08:12:36.224Z,99888.34
2022-12-08T08:16:26.789Z,99886.64
2022-12-08T08:20:18.306Z,99889.98
2022-12-08T08:24:09.438Z,99886.21
2022-12-08T08:27:59.949Z,99884.18
2022-12-08T08:31:50.636Z,99883.97
2022-12-08T08:35:42.309Z,99880.30
2022-12-08T08:39:32.776Z,99879.05
2022-12-08T08:43:34.311Z,99876.73
2022-12-08T08:47:28.321Z,99879.01
2022-12-08T08:51:18.548Z,99884.29
2022-12-08T08:55:09.126Z,99885.17
2022-12-08T08:59:01.438Z,99881.69
2022-12-08T09:02:54.230Z,99879.35
2022-12-08T09:06:49.179Z,99886.12
2022-12-08T09:10:44.365Z,99878.91
2022-12-08T09:14:42.796Z,99876.55
2022-12-08T09:18:34.903Z,99875.04
2022-12-08T09:22:30.525Z,99878.13
2022-12-08T09:26:25.093Z,99877.62
2022-12-08T09:30:19.784Z,99877.17
2022-12-08T09:34:12.571Z,99871.11
2022-12-08T09:38:05.837Z,99859.94
2022-12-08T09:42:03.059Z,99857.29
2022-12-08T09:45:55.333Z,99859.81
2022-12-08T09:50:09.076Z,99853.67
2022-12-08T09:54:13.425Z,99857.18
2022-12-08T09:58:07.023Z,99852.77
2022-12-08T10:01:57.584Z,99850.46
2022-12-08T10:05:58.351Z,99853.41
2022-12-08T10:09:57.457Z,99854.67
2022-12-08T10:14:07.827Z,99854.17
2022-12-08T10:18:01.908Z,99849.14
2022-12-08T10:21:53.649Z,99839.88
2022-12-08T10:25:49.273Z,99835.04
2022-12-08T10:29:41.252Z,99833.94
2022-12-08T10:33:33.465Z,99829.33
2022-12-08T10:37:23.446Z,99830.19
2022-12-08T10:41:18.125Z,99828.83
2022-12-08T10:45:08.789Z,99829.81
2022-12-08T10:49:05.304Z,99831.81
2022-12-08T10:53:09.936Z,99833.36
2022-12-08T10:57:00.645Z,99831.60
2022-12-08T11:00:54.533Z,99829.91
2022-12-08T11:04:45.137Z,99825.28
2022-12-08T11:08:47.314Z,99826.89
2022-12-08T11:12:37.737Z,99829.46
2022-12-08T11:16:28.270Z,99825.73
2022-12-08T11:20:18.315Z,99829.25
2022-12-08T11:24:14.558Z,99827.55
2022-12-08T11:28:05.776Z,99824.19
2022-12-08T11:32:04.444Z,99820.17
2022-12-08T11:35:58.149Z,99818.83
2022-12-08T11:39:53.783Z,99821.45
2022-12-08T11:43:59.845Z,99821.75
2022-12-08T11:47:57.617Z,99818.58
2022-12-08T11:51:58.262Z,99818.91
2022-12-08T11:56:21.839Z,99813.36
2022-12-08T11:59:33.431Z,99815.92
2022-12-08T12:03:32.702Z,99815.58
2022-12-08T12:07:32.008Z,99812.90
2022-12-08T12:11:58.609Z,99801.86
2022-12-08T12:16:00.987Z,99800.08
2022-12-08T12:19:52.637Z,99793.66
2022-12-08T12:23:48.035Z,99794.53
2022-12-08T12:27:40.586Z,99792.31
2022-12-08T12:31:35.597Z,99789.63
2022-12-08T12:35:40.951Z,99782.08
2022-12-08T12:39:52.855Z,99781.73
2022-12-08T12:43:28.511Z,99783.13
2022-12-08T12:47:56.318Z,99771.48
2022-12-08T12:51:54.168Z,99775.10
2022-12-08T12:56:00.852Z,99775.23
2022-12-08T13:00:05.496Z,99772.23
2022-12-08T13:04:10.845Z,99768.20
2022-12-08T13:08:15.902Z,99769.66
2022-12-08T13:12:12.435Z,99766.98
2022-12-08T13:16:19.525Z,99762.38
2022-12-08T13:20:23.449Z,99756.43
2022-12-08T13:24:26.950Z,99757.02
2022-12-08T13:28:24.624Z,99754.24
2022-12-08T13:33:18.563Z,99759.88
2022-12-08T13:37:12.502Z,99764.97
2022-12-08T13:41:11.407Z,99762.13
2022-12-08T13:45:59.185Z,99763.30
2022-12-08T13:57:56.699Z,99758.15
2022-12-08T14:01:49.682Z,99757.73
2022-12-08T14:06:10.916Z,99755.77
2022-12-08T14:09:54.313Z,99753.73
2022-12-08T14:18:48.445Z,99741.53
2022-12-08T14:22:41.481Z,99736.31
2022-12-08T14:26:34.653Z,99736.35
2022-12-08T14:30:28.224Z,99737.73
2022-12-08T14:34:19.036Z,99744.56
2022-12-08T14:38:15.134Z,99741.90
2022-12-08T14:42:06.807Z,99745.80
2022-12-08T14:46:03.486Z,99753.91
2022-12-08T14:49:53.756Z,99753.58
2022-12-08T14:53:46.694Z,99750.77
2022-12-08T14:57:37.116Z,99750.88
2022-12-08T15:01:27.415Z,99752.36
2022-12-08T15:05:21.650Z,99756.45
2022-12-08T15:09:32.587Z,99747.23
2022-12-08T15:13:23.300Z,99739.40
2022-12-08T15:17:50.052Z,99743.96
2022-12-08T15:21:40.968Z,99745.83
2022-12-08T15:25:31.833Z,99745.48
2022-12-08T15:29:28.967Z,99745.94
2022-12-08T15:33:19.902Z,99749.40
2022-12-08T15:37:22.083Z,99751.79
2022-12-08T15:41:15.379Z,99749.27
2022-12-08T15:45:08.552Z,99743.73
2022-12-08T15:48:59.176Z,99744.87
2022-12-08T15:52:54.290Z,99743.52
2022-12-08T16:01:09.127Z,99745.45
2022-12-08T16:05:33.845Z,99747.55
2022-12-08T16:09:26.649Z,99747.48
2022-12-08T16:13:56.655Z,99745.73
2022-12-08T16:17:49.673Z,99744.79
2022-12-08T16:22:29.878Z,99741.08
2022-12-08T16:26:20.275Z,99749.26
2022-12-08T16:30:07.259Z,99746.70
2022-12-08T16:33:57.437Z,99746.71
2022-12-08T16:37:48.968Z,99746.22
2022-12-08T16:41:58.413Z,99738.25
2022-12-08T16:45:49.767Z,99742.05
2022-12-08T16:49:40.650Z,99744.23
2022-12-08T16:53:33.107Z,99737.72
2022-12-08T16:57:30.224Z,99741.40
2022-12-08T17:01:27.965Z,99735.98
2022-12-08T17:05:26.787Z,99735.59
2022-12-08T17:09:21.469Z,99735.09
2022-12-08T17:13:17.070Z,99735.13
2022-12-08T17:17:09.818Z,99735.17
2022-12-08T17:21:02.367Z,99739.89
2022-12-08T17:24:55.671Z,99733.38
2022-12-08T17:29:00.627Z,99733.76
2022-12-08T17:32:53.033Z,99728.83
2022-12-08T17:36:49.319Z,99730.83
2022-12-08T17:40:44.925Z,99740.45
2022-12-08T17:44:38.245Z,99740.46
2022-12-08T17:48:30.307Z,99735.91
2022-12-08T17:52:21.015Z,99734.44
2022-12-08T17:56:17.162Z,99731.54
2022-12-08T18:00:08.587Z,99733.23
2022-12-08T18:04:04.515Z,99735.59
2022-12-08T18:07:55.060Z,99740.35
2022-12-08T18:11:46.650Z,99738.23
2022-12-08T18:15:39.358Z,99736.20
2022-12-08T18:19:30.726Z,99737.27
2022-12-08T18:23:21.945Z,99735.71
2022-12-08T18:27:12.040Z,99734.02
2022-12-08T18:31:02.824Z,99735.05
2022-12-08T18:34:53.354Z,99737.29
2022-12-08T18:38:46.364Z,99739.00
2022-12-08T18:42:36.763Z,99744.57
2022-12-08T18:46:30.051Z,99743.08
2022-12-08T18:50:20.594Z,99744.95
2022-12-08T18:54:12.992Z,99742.63
2022-12-08T18:58:03.650Z,99742.00
2022-12-08T19:01:54.500Z,99747.89
2022-12-08T19:05:44.761Z,99753.63
2022-12-08T19:09:35.694Z,99753.55
2022-12-08T19:13:27.471Z,99749.23
2022-12-08T19:17:18.124Z,99750.60
2022-12-08T19:21:08.928Z,99749.83
2022-12-08T19:25:00.252Z,99751.52
2022-12-08T19:28:50.962Z,99756.96
2022-12-08T19:32:42.345Z,99758.84
2022-12-08T19:36:35.694Z,99760.33
2022-12-08T19:40:48.392Z,99761.48
2022-12-08T19:44:53.034Z,99759.86
2022-12-08T19:48:46.438Z,99763.40
2022-12-08T19:52:41.282Z,99759.52
2022-12-08T19:56:36.348Z,99763.50
2022-12-08T20:00:31.118Z,99762.14
2022-12-08T20:04:24.278Z,99768.29
2022-12-08T20:08:17.246Z,99772.37
2022-12-08T20:12:09.715Z,99779.54
2022-12-08T20:16:01.131Z,99781.43
2022-12-08T20:19:53.865Z,99786.10
2022-12-08T20:23:48.954Z,99788.10
2022-12-08T20:27:41.560Z,99782.58
2022-12-08T20:31:33.895Z,99785.41
2022-12-08T20:35:25.648Z,99789.58
2022-12-08T20:39:18.636Z,99797.61
2022-12-08T20:43:10.123Z,99794.34
2022-12-08T20:47:00.672Z,99798.73
2022-12-08T20:50:53.429Z,99797.60
2022-12-08T20:54:46.767Z,99802.24
2022-12-08T20:58:40.911Z,99802.55
2022-12-08T21:02:31.415Z,99806.20
2022-12-08T21:06:27.765Z,99811.29
2022-12-08T21:10:22.830Z,99813.81
2022-12-08T21:14:14.046Z,99813.16
2022-12-08T21:18:04.936Z,99818.96
2022-12-08T21:21:57.166Z,99818.71
2022-12-08T21:25:47.988Z,99824.17
2022-12-08T21:29:38.278Z,99824.02
2022-12-08T21:33:41.226Z,99821.72
2022-12-08T21:37:31.983Z,99821.91
2022-12-08T21:41:42.946Z,99818.38
2022-12-08T21:45:33.994Z,99819.96
2022-12-08T21:49:24.408Z,99820.59
2022-12-08T21:53:36.455Z,99824.28
2022-12-08T21:56:52.648Z,99826.98
2022-12-08T22:00:43.340Z,99825.64
2022-12-08T22:04:36.275Z,99829.02
2022-12-08T22:08:29.160Z,99829.29
2022-12-08T22:12:20.961Z,99822.21
2022-12-08T22:16:36.118Z,99824.75
2022-12-08T22:19:51.620Z,99826.98
2022-12-08T22:23:45.947Z,99825.36
2022-12-08T22:27:40.982Z,99824.10
2022-12-08T22:31:31.925Z,99827.63
2022-12-08T22:35:23.192Z,99831.70
2022-12-08T22:39:13.772Z,99832.08
2022-12-08T22:43:04.321Z,99833.98
2022-12-08T22:46:55.086Z,99827.49
2022-12-08T22:50:45.993Z,99832.24
2022-12-08T22:54:36.840Z,99840.95
2022-12-08T22:58:29.162Z,99848.16
2022-12-08T23:02:19.361Z,99854.73
2022-12-08T23:06:13.438Z,99847.93
2022-12-08T23:10:06.419Z,99844.77
2022-12-08T23:14:00.588Z,99842.89
2022-12-08T23:17:51.919Z,99836.13
2022-12-08T23:21:42.592Z,99830.61
2022-12-08T23:25:33.089Z,99833.58
2022-12-08T23:29:23.492Z,99829.50
2022-12-08T23:33:13.963Z,99839.20
2022-12-08T23:37:05.367Z,99844.98
2022-12-08T23:41:00.620Z,99846.77
2022-12-08T23:44:51.250Z,99852.64
2022-12-08T23:48:41.712Z,99855.06
2022-12-08T23:52:31.786Z,99858.70
2022-12-08T23:56:28.333Z,99855.75
